createdAt,value
2023-04-16T00:00:48.402Z,96639.09
2023-04-16T00:02:50.252Z,96642.16
2023-04-16T00:04:52.271Z,96648.31
2023-04-16T00:06:54.811Z,96649.25
2023-04-16T00:08:56.363Z,96649.53
2023-04-16T00:10:57.874Z,96642.28
2023-04-16T00:12:59.571Z,96651.53
2023-04-16T00:15:01.259Z,96646.13
2023-04-16T00:17:03.050Z,96651.88
2023-04-16T00:19:04.760Z,96643.44
2023-04-16T00:21:07.588Z,96649.22
2023-04-16T00:23:09.386Z,96644.16
2023-04-16T00:25:10.947Z,96645.19
2023-04-16T00:27:12.490Z,96646.84
2023-04-16T00:29:14.313Z,96641.47
2023-04-16T00:31:15.909Z,96644.16
2023-04-16T00:33:17.656Z,96644.16
2023-04-16T00:35:19.320Z,96643.75
2023-04-16T00:37:21.061Z,96644.88
2023-04-16T00:39:22.623Z,96642.97
2023-04-16T00:41:24.266Z,96642.16
2023-04-16T00:43:26.676Z,96650.63
2023-04-16T00:45:28.193Z,96644.94
2023-04-16T00:47:31.009Z,96644.19
2023-04-16T00:49:32.678Z,96648.81
2023-04-16T00:51:35.333Z,96656.84
2023-04-16T00:53:38.072Z,96657.66
2023-04-16T00:55:40.676Z,96658.47
2023-04-16T00:57:42.201Z,96660.78
2023-04-16T00:59:43.793Z,96657.66
2023-04-16T01:01:45.504Z,96666.50
2023-04-16T01:03:49.323Z,96657.56
2023-04-16T01:05:51.386Z,96663.28
2023-04-16T01:07:53.572Z,96660.63
2023-04-16T01:09:55.333Z,96665.97
2023-04-16T01:11:57.025Z,96668.56
2023-04-16T01:13:58.534Z,96672.03
2023-04-16T01:16:01.414Z,96662.03
2023-04-16T01:18:03.500Z,96667.75
2023-04-16T01:20:06.978Z,96669.84
2023-04-16T01:22:08.513Z,96667.88
2023-04-16T01:24:10.257Z,96667.47
2023-04-16T01:26:11.794Z,96667.84
2023-04-16T01:28:13.566Z,96671.31
2023-04-16T01:30:15.238Z,96668.97
2023-04-16T01:32:33.549Z,96671.66
2023-04-16T01:34:35.289Z,96677.38
2023-04-16T01:36:36.846Z,96674.69
2023-04-16T01:38:38.450Z,96685.50
2023-04-16T01:40:40.442Z,96680.59
2023-04-16T01:42:42.152Z,96687.44
2023-04-16T01:44:43.719Z,96690.19
2023-04-16T01:46:45.459Z,96685.22
2023-04-16T01:48:47.166Z,96688.69
2023-04-16T01:50:48.703Z,96675.25
2023-04-16T01:52:50.475Z,96681.38
2023-04-16T01:54:52.328Z,96682.41
2023-04-16T01:56:54.074Z,96693.50
2023-04-16T01:58:55.745Z,96680.13
2023-04-16T02:00:58.953Z,96689.41
2023-04-16T02:03:01.674Z,96682.47
2023-04-16T02:05:03.772Z,96685.97
2023-04-16T02:07:06.104Z,96690.56
2023-04-16T02:09:07.814Z,96692.09
2023-04-16T02:11:11.363Z,96690.06
2023-04-16T02:13:14.601Z,96683.91
2023-04-16T02:15:17.614Z,96685.41
2023-04-16T02:17:19.901Z,96681.16
2023-04-16T02:19:24.291Z,96689.03
2023-04-16T02:21:25.894Z,96697.50
2023-04-16T02:23:27.628Z,96687.81
2023-04-16T02:25:30.263Z,96696.66
2023-04-16T02:27:32.854Z,96689.81
2023-04-16T02:29:46.664Z,96695.19
2023-04-16T02:31:51.811Z,96692.13
2023-04-16T02:33:54.463Z,96693.88
2023-04-16T02:35:56.041Z,96695.13
2023-04-16T02:37:57.881Z,96697.84
2023-04-16T02:39:59.540Z,96697.84
2023-04-16T02:42:02.448Z,96700.50
2023-04-16T02:44:04.094Z,96699.69
2023-04-16T02:46:05.946Z,96703.56
2023-04-16T02:48:09.042Z,96690.88
2023-04-16T02:50:10.906Z,96692.00
2023-04-16T02:52:14.373Z,96693.53
2023-04-16T02:54:16.977Z,96701.25
2023-04-16T02:56:18.587Z,96685.06
2023-04-16T02:58:21.633Z,96695.53
2023-04-16T03:00:23.304Z,96699.22
2023-04-16T03:02:24.986Z,96701.09
2023-04-16T03:04:26.563Z,96695.72
2023-04-16T03:06:28.536Z,96696.13
2023-04-16T03:08:30.052Z,96701.59
2023-04-16T03:10:32.117Z,96703.91
2023-04-16T03:12:33.657Z,96708.50
2023-04-16T03:14:35.207Z,96713.19
2023-04-16T03:16:36.807Z,96714.00
2023-04-16T03:18:38.390Z,96715.81
2023-04-16T03:20:39.921Z,96713.13
2023-04-16T03:22:41.556Z,96708.22
2023-04-16T03:24:43.169Z,96706.72
2023-04-16T03:26:44.652Z,96712.06
2023-04-16T03:28:46.770Z,96714.34
2023-04-16T03:30:53.016Z,96711.25
2023-04-16T03:32:54.737Z,96712.44
2023-04-16T03:34:56.271Z,96715.47
2023-04-16T03:36:58.333Z,96725.06
2023-04-16T03:39:00.175Z,96719.75
2023-04-16T03:41:02.453Z,96718.28
2023-04-16T03:43:07.269Z,96725.19
2023-04-16T03:45:09.474Z,96721.72
2023-04-16T03:47:11.981Z,96722.50
2023-04-16T03:49:13.896Z,96713.63
2023-04-16T03:51:16.103Z,96716.38
2023-04-16T03:53:17.783Z,96729.75
2023-04-16T03:55:20.297Z,96721.72
2023-04-16T03:57:21.775Z,96722.47
2023-04-16T03:59:23.870Z,96721.66
2023-04-16T04:01:25.557Z,96727.41
2023-04-16T04:03:27.943Z,96718.97
2023-04-16T04:05:30.633Z,96721.34
2023-04-16T04:07:33.644Z,96721.28
2023-04-16T04:09:35.321Z,96723.59
2023-04-16T04:11:38.155Z,96722.06
2023-04-16T04:13:39.649Z,96733.53
2023-04-16T04:15:41.222Z,96728.16
2023-04-16T04:17:43.055Z,96727.44
2023-04-16T04:20:00.166Z,96731.22
2023-04-16T04:22:05.238Z,96724.72
2023-04-16T04:24:06.810Z,96732.38
2023-04-16T04:26:09.398Z,96731.22
2023-04-16T04:28:11.000Z,96746.22
2023-04-16T04:30:13.423Z,96743.56
2023-04-16T04:32:16.354Z,96739.28
2023-04-16T04:34:19.283Z,96738.56
2023-04-16T04:36:20.968Z,96743.19
2023-04-16T04:38:25.148Z,96752.81
2023-04-16T04:40:27.349Z,96751.16
2023-04-16T04:42:29.019Z,96753.16
2023-04-16T04:44:30.735Z,96759.72
2023-04-16T04:46:32.318Z,96761.19
2023-04-16T04:48:34.019Z,96755.00
2023-04-16T04:50:36.670Z,96753.81
2023-04-16T04:52:38.318Z,96760.47
2023-04-16T04:54:41.677Z,96757.41
2023-04-16T04:56:45.654Z,96759.75
2023-04-16T04:58:50.552Z,96758.94
2023-04-16T05:00:54.533Z,96767.66
2023-04-16T05:02:56.245Z,96767.75
2023-04-16T05:04:57.988Z,96777.31
2023-04-16T05:06:59.618Z,96769.63
2023-04-16T05:09:01.294Z,96775.88
2023-04-16T05:11:02.954Z,96780.78
2023-04-16T05:13:04.512Z,96782.72
2023-04-16T05:15:06.533Z,96785.03
2023-04-16T05:17:08.188Z,96788.91
2023-04-16T05:19:10.083Z,96780.06
2023-04-16T05:21:11.852Z,96786.19
2023-04-16T05:23:15.505Z,96790.81
2023-04-16T05:25:17.462Z,96793.47
2023-04-16T05:27:19.206Z,96793.88
2023-04-16T05:29:20.764Z,96800.41
2023-04-16T05:31:22.457Z,96785.06
2023-04-16T05:33:24.136Z,96789.66
2023-04-16T05:35:25.863Z,96794.63
2023-04-16T05:37:27.447Z,96798.94
2023-04-16T05:39:28.951Z,96803.13
2023-04-16T05:41:30.746Z,96800.47
2023-04-16T05:43:32.388Z,96799.59
2023-04-16T05:45:39.476Z,96803.81
2023-04-16T05:47:41.068Z,96804.22
2023-04-16T05:49:42.664Z,96809.97
2023-04-16T05:51:44.616Z,96812.63
2023-04-16T05:53:46.197Z,96813.06
2023-04-16T05:55:47.714Z,96809.22
2023-04-16T05:57:49.274Z,96819.25
2023-04-16T05:59:50.896Z,96820.41
2023-04-16T06:01:52.667Z,96819.25
2023-04-16T06:03:54.746Z,96818.53
2023-04-16T06:05:56.635Z,96826.59
2023-04-16T06:07:58.328Z,96819.31
2023-04-16T06:09:59.849Z,96819.69
2023-04-16T06:12:01.924Z,96820.09
2023-04-16T06:14:03.516Z,96825.84
2023-04-16T06:16:05.773Z,96823.19
2023-04-16T06:18:07.482Z,96819.66
2023-04-16T06:20:09.598Z,96821.97
2023-04-16T06:22:11.371Z,96825.38
2023-04-16T06:24:13.169Z,96827.34
2023-04-16T06:26:14.746Z,96825.06
2023-04-16T06:28:16.304Z,96819.25
2023-04-16T06:30:19.797Z,96826.59
2023-04-16T06:32:21.499Z,96824.66
2023-04-16T06:34:23.332Z,96833.84
2023-04-16T06:36:24.838Z,96829.97
2023-04-16T06:38:26.356Z,96827.31
2023-04-16T06:40:27.988Z,96830.03
2023-04-16T06:42:29.834Z,96824.66
2023-04-16T06:44:31.811Z,96825.81
2023-04-16T06:46:33.405Z,96826.25
2023-04-16T06:48:35.007Z,96830.09
2023-04-16T06:50:37.217Z,96838.91
2023-04-16T06:52:38.777Z,96835.84
2023-04-16T06:54:40.534Z,96838.13
2023-04-16T06:56:42.110Z,96835.44
2023-04-16T06:59:03.020Z,96835.41
2023-04-16T07:01:23.414Z,96838.13
2023-04-16T07:03:46.163Z,96841.16
2023-04-16T07:05:47.961Z,96848.44
2023-04-16T07:07:49.648Z,96852.31
2023-04-16T07:09:52.162Z,96853.84
2023-04-16T07:12:12.358Z,96859.63
2023-04-16T07:14:32.529Z,96859.25
2023-04-16T07:16:48.309Z,96858.78
2023-04-16T07:18:54.365Z,96861.09
2023-04-16T07:20:55.940Z,96857.69
2023-04-16T07:22:59.260Z,96863.81
2023-04-16T07:25:00.915Z,96868.41
2023-04-16T07:27:02.511Z,96859.16
2023-04-16T07:29:03.981Z,96870.66
2023-04-16T07:31:06.003Z,96874.91
2023-04-16T07:33:07.914Z,96870.31
2023-04-16T07:35:09.873Z,96871.47
2023-04-16T07:37:11.383Z,96878.81
2023-04-16T07:39:13.196Z,96875.25
2023-04-16T07:41:15.183Z,96879.13
2023-04-16T07:43:16.763Z,96878.75
2023-04-16T07:45:19.216Z,96877.91
2023-04-16T07:47:22.921Z,96876.69
2023-04-16T07:49:24.529Z,96880.94
2023-04-16T07:51:26.301Z,96879.75
2023-04-16T07:53:27.872Z,96877.53
2023-04-16T07:55:29.399Z,96885.13
2023-04-16T07:57:31.168Z,96883.25
2023-04-16T07:59:32.713Z,96881.69
2023-04-16T08:01:34.273Z,96890.00
2023-04-16T08:03:36.012Z,96892.38
2023-04-16T08:05:37.895Z,96889.38
2023-04-16T08:07:40.493Z,96890.56
2023-04-16T08:09:49.119Z,96897.00
2023-04-16T08:11:50.802Z,96891.22
2023-04-16T08:13:52.467Z,96898.53
2023-04-16T08:15:54.226Z,96900.81
2023-04-16T08:17:55.944Z,96900.44
2023-04-16T08:19:57.740Z,96904.75
2023-04-16T08:21:59.668Z,96900.16
2023-04-16T08:24:01.155Z,96900.13
2023-04-16T08:26:02.757Z,96908.63
2023-04-16T08:28:04.637Z,96909.78
2023-04-16T08:30:07.800Z,96910.97
2023-04-16T08:32:10.188Z,96912.84
2023-04-16T08:34:12.375Z,96920.06
2023-04-16T08:36:13.890Z,96917.03
2023-04-16T08:38:15.442Z,96915.91
2023-04-16T08:40:17.119Z,96919.72
2023-04-16T08:42:28.839Z,96933.19
2023-04-16T08:44:37.486Z,96924.69
2023-04-16T08:46:40.643Z,96930.53
2023-04-16T08:48:45.198Z,96934.38
2023-04-16T08:50:52.492Z,96933.59
2023-04-16T08:53:03.313Z,96933.13
2023-04-16T08:55:11.965Z,96930.88
2023-04-16T08:57:18.226Z,96936.63
2023-04-16T08:59:20.007Z,96937.00
2023-04-16T09:01:22.258Z,96933.84
2023-04-16T09:03:23.911Z,96938.47
2023-04-16T09:05:27.625Z,96931.94
2023-04-16T09:07:29.547Z,96936.94
2023-04-16T09:09:33.432Z,96942.00
2023-04-16T09:11:36.391Z,96945.47
2023-04-16T09:13:38.157Z,96942.81
2023-04-16T09:15:41.201Z,96947.75
2023-04-16T09:17:42.830Z,96948.56
2023-04-16T09:19:45.212Z,96954.63
2023-04-16T09:21:48.204Z,96943.94
2023-04-16T09:23:50.263Z,96962.38
2023-04-16T09:25:52.183Z,96963.44
2023-04-16T09:27:54.134Z,96960.00
2023-04-16T09:29:55.679Z,96968.53
2023-04-16T09:32:05.194Z,96966.63
2023-04-16T09:34:09.020Z,96968.16
2023-04-16T09:36:11.005Z,96970.09
2023-04-16T09:38:12.534Z,96970.00
2023-04-16T09:40:24.201Z,96973.91
2023-04-16T09:42:28.601Z,96970.78
2023-04-16T09:44:38.304Z,96975.78
2023-04-16T09:46:42.924Z,96981.56
2023-04-16T09:48:45.703Z,96989.28
2023-04-16T09:50:51.524Z,96991.59
2023-04-16T09:52:53.595Z,96991.59
2023-04-16T09:54:55.340Z,96989.63
2023-04-16T09:56:57.771Z,96988.88
2023-04-16T09:59:02.647Z,96998.50
2023-04-16T10:01:07.266Z,96997.72
2023-04-16T10:03:08.945Z,96995.03
2023-04-16T10:05:16.594Z,97008.16
2023-04-16T10:07:19.717Z,97011.59
2023-04-16T10:09:22.728Z,97002.34
2023-04-16T10:11:24.862Z,97001.59
2023-04-16T10:13:31.039Z,97000.81
2023-04-16T10:15:32.798Z,96997.31
2023-04-16T10:17:35.225Z,97013.50
2023-04-16T10:19:37.253Z,97013.81
2023-04-16T10:21:39.706Z,97007.69
2023-04-16T10:23:42.632Z,97014.53
2023-04-16T10:25:45.586Z,97006.81
2023-04-16T10:27:47.897Z,97015.69
2023-04-16T10:29:50.528Z,97015.72
2023-04-16T10:31:53.361Z,97023.75
2023-04-16T10:33:56.173Z,97026.09
2023-04-16T10:36:08.135Z,97021.06
2023-04-16T10:38:24.470Z,97020.66
2023-04-16T10:40:27.225Z,97021.78
2023-04-16T10:42:28.857Z,97023.25
2023-04-16T10:44:32.030Z,97028.22
2023-04-16T10:46:37.718Z,97026.25
2023-04-16T10:48:49.238Z,97024.28
2023-04-16T10:50:56.886Z,97029.03
2023-04-16T10:53:22.545Z,97030.66
2023-04-16T10:55:24.843Z,97033.34
2023-04-16T10:57:29.188Z,97032.44
2023-04-16T10:59:33.239Z,97029.00
2023-04-16T11:01:42.907Z,97036.31
2023-04-16T11:03:47.514Z,97038.69
2023-04-16T11:05:49.324Z,97037.09
2023-04-16T11:07:50.846Z,97030.56
2023-04-16T11:10:05.404Z,97027.13
2023-04-16T11:12:08.284Z,97035.63
2023-04-16T11:14:11.685Z,97035.66
2023-04-16T11:16:14.714Z,97040.22
2023-04-16T11:18:19.675Z,97033.28
2023-04-16T11:20:24.591Z,97042.91
2023-04-16T11:22:26.907Z,97038.66
2023-04-16T11:24:32.013Z,97037.56
2023-04-16T11:26:33.692Z,97038.34
2023-04-16T11:28:35.913Z,97047.59
2023-04-16T11:30:39.194Z,97043.03
2023-04-16T11:32:41.106Z,97045.31
2023-04-16T11:34:46.097Z,97042.66
2023-04-16T11:36:50.490Z,97043.41
2023-04-16T11:39:02.046Z,97050.75
2023-04-16T11:41:03.959Z,97056.91
2023-04-16T11:43:16.307Z,97061.47
2023-04-16T11:45:21.060Z,97051.84
2023-04-16T11:47:24.451Z,97056.47
2023-04-16T11:49:32.427Z,97055.69
2023-04-16T11:51:39.570Z,97061.88
2023-04-16T11:53:48.754Z,97058.03
2023-04-16T11:55:50.712Z,97051.91
2023-04-16T11:57:52.710Z,97058.47
2023-04-16T12:00:01.659Z,97065.78
2023-04-16T12:02:14.294Z,97056.91
2023-04-16T12:04:17.636Z,97064.28
2023-04-16T12:06:19.415Z,97065.44
2023-04-16T12:08:30.780Z,97061.22
2023-04-16T12:10:37.742Z,97065.41
2023-04-16T12:12:39.409Z,97068.09
2023-04-16T12:14:50.528Z,97070.47
2023-04-16T12:16:52.387Z,97066.97
2023-04-16T12:19:02.908Z,97072.78
2023-04-16T12:21:05.715Z,97070.06
2023-04-16T12:23:08.338Z,97080.47
2023-04-16T12:25:19.248Z,97078.16
2023-04-16T12:27:22.791Z,97071.63
2023-04-16T12:29:30.368Z,97083.56
2023-04-16T12:31:38.266Z,97083.94
2023-04-16T12:34:02.615Z,97087.75
2023-04-16T12:36:22.724Z,97080.47
2023-04-16T12:38:25.588Z,97083.53
2023-04-16T12:40:27.688Z,97087.78
2023-04-16T12:42:35.579Z,97079.28
2023-04-16T12:44:37.230Z,97086.56
2023-04-16T12:46:40.502Z,97087.75
2023-04-16T12:48:42.470Z,97084.69
2023-04-16T12:50:44.430Z,97083.56
2023-04-16T12:52:46.379Z,97088.94
2023-04-16T12:54:48.001Z,97080.84
2023-04-16T12:56:49.733Z,97079.31
2023-04-16T12:58:52.167Z,97086.63
2023-04-16T13:00:53.835Z,97081.59
2023-04-16T13:02:55.994Z,97084.25
2023-04-16T13:04:58.175Z,97083.13
2023-04-16T13:07:00.484Z,97092.31
2023-04-16T13:09:02.391Z,97090.75
2023-04-16T13:11:24.024Z,97089.97
2023-04-16T13:13:45.733Z,97090.38
2023-04-16T13:15:47.442Z,97091.16
2023-04-16T13:18:08.964Z,97091.53
2023-04-16T13:20:30.526Z,97093.03
2023-04-16T13:22:32.242Z,97081.13
2023-04-16T13:24:53.905Z,97078.84
2023-04-16T13:27:16.808Z,97087.31
2023-04-16T13:29:36.999Z,97086.97
2023-04-16T13:31:38.810Z,97089.25
2023-04-16T13:33:40.738Z,97086.22
2023-04-16T13:35:42.332Z,97088.47
2023-04-16T13:37:43.791Z,97086.91
2023-04-16T13:39:45.462Z,97087.72
2023-04-16T13:41:49.023Z,97097.75
2023-04-16T13:43:50.628Z,97091.56
2023-04-16T13:45:52.472Z,97095.38
2023-04-16T13:47:54.778Z,97100.22
2023-04-16T13:49:56.458Z,97114.75
2023-04-16T13:51:57.909Z,97105.69
2023-04-16T13:53:59.537Z,97104.84
2023-04-16T13:56:03.608Z,97109.56
2023-04-16T13:58:07.094Z,97113.91
2023-04-16T14:00:11.894Z,97110.00
2023-04-16T14:02:14.891Z,97111.25
2023-04-16T14:04:16.580Z,97115.94
2023-04-16T14:06:18.360Z,97105.84
2023-04-16T14:08:21.234Z,97114.34
2023-04-16T14:10:22.813Z,97119.03
2023-04-16T14:12:24.405Z,97121.38
2023-04-16T14:14:26.140Z,97119.47
2023-04-16T14:16:27.902Z,97116.47
2023-04-16T14:18:29.741Z,97113.88
2023-04-16T14:20:31.355Z,97114.66
2023-04-16T14:22:32.903Z,97117.75
2023-04-16T14:24:34.487Z,97126.56
2023-04-16T14:26:35.984Z,97119.28
2023-04-16T14:28:38.106Z,97120.03
2023-04-16T14:30:39.638Z,97131.59
2023-04-16T14:32:41.237Z,97121.19
2023-04-16T14:34:42.938Z,97125.72
2023-04-16T14:36:45.202Z,97118.88
2023-04-16T14:38:47.856Z,97120.81
2023-04-16T14:40:49.495Z,97121.63
2023-04-16T14:42:51.471Z,97127.00
2023-04-16T14:44:53.780Z,97128.56
2023-04-16T14:46:55.860Z,97128.94
2023-04-16T14:48:57.461Z,97135.44
2023-04-16T14:50:58.954Z,97137.03
2023-04-16T14:53:00.491Z,97136.63
2023-04-16T14:55:02.296Z,97143.16
2023-04-16T14:57:04.009Z,97143.16
2023-04-16T14:59:05.653Z,97130.13
2023-04-16T15:01:07.306Z,97130.47
2023-04-16T15:03:09.221Z,97138.56
2023-04-16T15:05:10.876Z,97137.00
2023-04-16T15:07:12.488Z,97140.13
2023-04-16T15:09:14.021Z,97131.63
2023-04-16T15:11:15.514Z,97140.84
2023-04-16T15:13:17.689Z,97145.88
2023-04-16T15:15:19.467Z,97142.41
2023-04-16T15:17:21.458Z,97132.41
2023-04-16T15:19:23.172Z,97137.03
2023-04-16T15:21:26.540Z,97138.53
2023-04-16T15:23:28.146Z,97137.00
2023-04-16T15:25:29.667Z,97143.16
2023-04-16T15:27:31.332Z,97139.31
2023-04-16T15:29:32.905Z,97142.03
2023-04-16T15:31:34.530Z,97134.72
2023-04-16T15:33:36.073Z,97142.41
2023-04-16T15:35:41.031Z,97139.72
2023-04-16T15:37:42.554Z,97138.16
2023-04-16T15:39:44.490Z,97143.19
2023-04-16T15:41:59.840Z,97149.34
2023-04-16T15:44:03.330Z,97154.72
2023-04-16T15:46:05.401Z,97156.66
2023-04-16T15:48:07.030Z,97157.03
2023-04-16T15:50:08.675Z,97157.41
2023-04-16T15:52:11.872Z,97158.53
2023-04-16T15:54:13.412Z,97160.88
2023-04-16T15:56:15.234Z,97162.78
2023-04-16T15:58:17.539Z,97156.63
2023-04-16T16:00:19.576Z,97160.88
2023-04-16T16:02:21.354Z,97158.16
2023-04-16T16:04:23.394Z,97157.41
2023-04-16T16:06:27.200Z,97163.13
2023-04-16T16:08:33.886Z,97152.00
2023-04-16T16:10:35.649Z,97156.22
2023-04-16T16:12:37.609Z,97162.38
2023-04-16T16:14:39.330Z,97166.63
2023-04-16T16:16:41.095Z,97163.94
2023-04-16T16:18:42.802Z,97163.94
2023-04-16T16:20:44.390Z,97175.50
2023-04-16T16:22:47.481Z,97182.78
2023-04-16T16:24:52.023Z,97169.31
2023-04-16T16:26:53.879Z,97170.44
2023-04-16T16:28:56.949Z,97171.59
2023-04-16T16:30:59.334Z,97173.16
2023-04-16T16:33:01.008Z,97171.63
2023-04-16T16:35:02.665Z,97180.09
2023-04-16T16:37:05.552Z,97169.69
2023-04-16T16:39:07.149Z,97176.59
2023-04-16T16:41:08.757Z,97170.84
2023-04-16T16:43:10.627Z,97169.66
2023-04-16T16:45:12.235Z,97179.69
2023-04-16T16:47:13.842Z,97169.31
2023-04-16T16:49:17.055Z,97171.25
2023-04-16T16:51:18.738Z,97175.47
2023-04-16T16:53:20.475Z,97176.22
2023-04-16T16:55:22.141Z,97176.59
2023-04-16T16:57:24.758Z,97178.13
2023-04-16T16:59:26.307Z,97183.91
2023-04-16T17:01:28.213Z,97183.13
2023-04-16T17:03:29.995Z,97187.00
2023-04-16T17:05:31.696Z,97185.88
2023-04-16T17:07:33.521Z,97188.56
2023-04-16T17:09:35.454Z,97189.31
2023-04-16T17:11:37.056Z,97199.34
2023-04-16T17:13:39.034Z,97190.88
2023-04-16T17:15:40.894Z,97190.91
2023-04-16T17:17:42.867Z,97192.44
2023-04-16T17:19:44.525Z,97203.22
2023-04-16T17:21:46.462Z,97200.50
2023-04-16T17:23:48.062Z,97200.09
2023-04-16T17:25:49.714Z,97201.66
2023-04-16T17:27:51.458Z,97200.47
2023-04-16T17:29:59.740Z,97207.41
2023-04-16T17:32:01.424Z,97202.03
2023-04-16T17:34:05.704Z,97207.81
2023-04-16T17:36:07.729Z,97213.19
2023-04-16T17:38:09.605Z,97208.56
2023-04-16T17:40:12.673Z,97210.13
2023-04-16T17:42:14.359Z,97210.91
2023-04-16T17:44:16.417Z,97202.84
2023-04-16T17:46:18.308Z,97215.50
2023-04-16T17:48:19.924Z,97215.50
2023-04-16T17:50:21.453Z,97208.22
2023-04-16T17:52:23.258Z,97209.38
2023-04-16T17:54:25.536Z,97210.88
2023-04-16T17:56:27.208Z,97210.50
2023-04-16T17:58:32.669Z,97217.44
2023-04-16T18:00:34.154Z,97219.34
2023-04-16T18:02:35.814Z,97218.19
2023-04-16T18:04:38.252Z,97220.91
2023-04-16T18:06:39.901Z,97227.44
2023-04-16T18:08:41.507Z,97224.72
2023-04-16T18:10:43.101Z,97218.56
2023-04-16T18:12:44.723Z,97226.66
2023-04-16T18:14:46.818Z,97225.84
2023-04-16T18:16:49.412Z,97225.53
2023-04-16T18:18:50.877Z,97230.16
2023-04-16T18:20:52.901Z,97225.16
2023-04-16T18:22:54.446Z,97237.47
2023-04-16T18:24:56.168Z,97234.75
2023-04-16T18:26:57.965Z,97245.53
2023-04-16T18:28:59.968Z,97247.09
2023-04-16T18:31:05.514Z,97245.53
2023-04-16T18:33:38.468Z,97247.47
2023-04-16T18:35:28.727Z,97258.25
2023-04-16T18:37:30.305Z,97256.31
2023-04-16T18:39:35.679Z,97254.75
2023-04-16T18:41:37.286Z,97256.31
2023-04-16T18:43:38.732Z,97253.22
2023-04-16T18:45:40.909Z,97261.31
2023-04-16T18:47:42.546Z,97256.31
2023-04-16T18:49:44.186Z,97262.09
2023-04-16T18:51:45.913Z,97262.09
2023-04-16T18:53:47.510Z,97267.09
2023-04-16T18:55:53.446Z,97262.47
2023-04-16T18:57:55.189Z,97267.88
2023-04-16T18:59:56.674Z,97263.63
2023-04-16T19:01:58.278Z,97268.25
2023-04-16T19:04:00.265Z,97272.09
2023-04-16T19:06:01.842Z,97272.50
2023-04-16T19:08:03.456Z,97269.41
2023-04-16T19:10:05.443Z,97272.44
2023-04-16T19:12:07.174Z,97283.22
2023-04-16T19:14:09.010Z,97278.22
2023-04-16T19:16:12.222Z,97279.41
2023-04-16T19:18:13.825Z,97277.88
2023-04-16T19:20:15.555Z,97287.13
2023-04-16T19:22:17.083Z,97280.97
2023-04-16T19:24:19.750Z,97281.28
2023-04-16T19:26:21.302Z,97278.63
2023-04-16T19:28:26.186Z,97278.63
2023-04-16T19:30:28.763Z,97285.19
2023-04-16T19:32:30.906Z,97289.41
2023-04-16T19:34:32.521Z,97282.09
2023-04-16T19:36:34.166Z,97274.00
2023-04-16T19:38:36.120Z,97269.72
2023-04-16T19:40:38.267Z,97268.97
2023-04-16T19:42:40.391Z,97273.97
2023-04-16T19:44:41.923Z,97263.19
2023-04-16T19:46:43.472Z,97270.91
2023-04-16T19:48:44.976Z,97270.50
2023-04-16T19:50:46.610Z,97264.72
2023-04-16T19:52:48.119Z,97264.34
2023-04-16T19:54:49.667Z,97274.34
2023-04-16T19:56:52.714Z,97273.19
2023-04-16T19:58:54.265Z,97268.56
2023-04-16T20:00:56.411Z,97267.44
2023-04-16T20:02:58.109Z,97275.13
2023-04-16T20:05:01.280Z,97275.09
2023-04-16T20:07:02.870Z,97275.88
2023-04-16T20:09:04.835Z,97274.34
2023-04-16T20:11:08.344Z,97275.50
2023-04-16T20:13:12.004Z,97283.16
2023-04-16T20:15:13.867Z,97284.31
2023-04-16T20:17:17.684Z,97283.56
2023-04-16T20:19:19.525Z,97284.34
2023-04-16T20:21:24.999Z,97293.53
2023-04-16T20:23:26.548Z,97292.41
2023-04-16T20:25:29.118Z,97277.03
2023-04-16T20:27:30.605Z,97282.06
2023-04-16T20:29:32.250Z,97283.97
2023-04-16T20:31:33.721Z,97281.63
2023-04-16T20:33:35.288Z,97279.38
2023-04-16T20:35:36.808Z,97279.34
2023-04-16T20:37:38.688Z,97284.72
2023-04-16T20:39:42.140Z,97285.88
2023-04-16T20:41:43.977Z,97293.19
2023-04-16T20:43:49.902Z,97284.75
2023-04-16T20:45:51.382Z,97280.13
2023-04-16T20:47:53.287Z,97279.75
2023-04-16T20:49:55.136Z,97284.75
2023-04-16T20:51:56.662Z,97286.31
2023-04-16T20:53:58.137Z,97280.53
2023-04-16T20:56:00.354Z,97288.59
2023-04-16T20:58:01.916Z,97289.38
2023-04-16T21:00:06.356Z,97290.59
2023-04-16T21:02:08.021Z,97286.31
2023-04-16T21:04:10.091Z,97292.50
2023-04-16T21:06:14.318Z,97286.31
2023-04-16T21:08:21.952Z,97294.03
2023-04-16T21:10:23.477Z,97285.16
2023-04-16T21:12:25.026Z,97284.81
2023-04-16T21:14:26.650Z,97292.50
2023-04-16T21:16:28.919Z,97288.66
2023-04-16T21:18:30.763Z,97288.28
2023-04-16T21:20:33.054Z,97293.63
2023-04-16T21:22:34.524Z,97292.88
2023-04-16T21:24:36.032Z,97287.13
2023-04-16T21:26:37.556Z,97285.19
2023-04-16T21:28:39.100Z,97289.41
2023-04-16T21:30:40.692Z,97293.28
2023-04-16T21:32:42.556Z,97284.75
2023-04-16T21:34:44.133Z,97295.22
2023-04-16T21:36:46.156Z,97289.44
2023-04-16T21:38:47.688Z,97289.03
2023-04-16T21:40:51.273Z,97292.13
2023-04-16T21:42:53.560Z,97287.88
2023-04-16T21:44:55.121Z,97293.28
2023-04-16T21:46:56.676Z,97294.81
2023-04-16T21:48:58.429Z,97298.66
2023-04-16T21:51:06.346Z,97287.09
2023-04-16T21:53:08.100Z,97280.94
2023-04-16T21:55:09.708Z,97284.03
2023-04-16T21:57:11.686Z,97283.28
2023-04-16T21:59:13.424Z,97282.88
2023-04-16T22:01:15.210Z,97287.88
2023-04-16T22:03:17.240Z,97286.31
2023-04-16T22:05:19.956Z,97287.50
2023-04-16T22:07:21.496Z,97290.56
2023-04-16T22:09:24.787Z,97289.00
2023-04-16T22:11:26.273Z,97293.22
2023-04-16T22:13:33.712Z,97298.59
2023-04-16T22:15:35.415Z,97290.16
2023-04-16T22:17:37.711Z,97290.91
2023-04-16T22:19:39.378Z,97290.91
2023-04-16T22:21:41.240Z,97295.16
2023-04-16T22:23:42.807Z,97282.47
2023-04-16T22:25:44.491Z,97286.28
2023-04-16T22:27:46.177Z,97288.66
2023-04-16T22:29:47.717Z,97293.22
2023-04-16T22:31:49.420Z,97283.56
2023-04-16T22:33:51.054Z,97291.69
2023-04-16T22:35:52.975Z,97285.13
2023-04-16T22:37:54.552Z,97285.91
2023-04-16T22:39:56.186Z,97287.06
2023-04-16T22:41:57.632Z,97281.28
2023-04-16T22:43:59.137Z,97278.97
2023-04-16T22:46:04.519Z,97281.28
2023-04-16T22:48:06.228Z,97288.22
2023-04-16T22:50:08.348Z,97280.13
2023-04-16T22:52:09.857Z,97283.59
2023-04-16T22:54:13.661Z,97286.66
2023-04-16T22:56:15.664Z,97283.59
2023-04-16T22:58:17.679Z,97284.75
2023-04-16T23:00:19.324Z,97289.38
2023-04-16T23:02:21.427Z,97282.81
2023-04-16T23:04:23.211Z,97279.00
2023-04-16T23:06:24.815Z,97280.53
2023-04-16T23:08:26.408Z,97276.66
2023-04-16T23:10:27.920Z,97286.25
2023-04-16T23:12:29.508Z,97284.31
2023-04-16T23:14:31.468Z,97279.69
2023-04-16T23:16:33.170Z,97282.03
2023-04-16T23:18:34.817Z,97284.72
2023-04-16T23:20:36.304Z,97274.75
2023-04-16T23:22:38.105Z,97282.47
2023-04-16T23:24:39.744Z,97284.72
2023-04-16T23:26:41.325Z,97282.38
2023-04-16T23:28:42.851Z,97281.63
2023-04-16T23:30:44.432Z,97280.09
2023-04-16T23:32:45.987Z,97283.19
2023-04-16T23:34:47.563Z,97276.28
2023-04-16T23:36:49.176Z,97277.81
2023-04-16T23:38:50.820Z,97277.03
2023-04-16T23:40:52.312Z,97282.41
2023-04-16T23:42:53.843Z,97268.22
2023-04-16T23:44:55.468Z,97271.28
2023-04-16T23:46:57.493Z,97271.63
2023-04-16T23:48:59.175Z,97275.47
2023-04-16T23:51:01.070Z,97271.66
2023-04-16T23:53:02.532Z,97272.03
2023-04-16T23:55:04.459Z,97270.50
2023-04-16T23:57:06.004Z,97266.28
2023-04-16T23:59:10.627Z,97276.28
